sensor_id;sensor_type;location;lat;lon;timestamp;temperature;humidity
76838;DHT22;65797;47.352;8.164;2022-12-08T00:00:45;-0.40;1.00
76838;DHT22;65797;47.352;8.164;2022-12-08T00:03:11;-0.30;1.00
76838;DHT22;65797;47.352;8.164;2022-12-08T00:05:36;-0.30;1.00
76838;DHT22;65797;47.352;8.164;2022-12-08T00:08:20;-0.30;1.00
76838;DHT22;65797;47.352;8.164;2022-12-08T00:11:05;-0.20;1.00
76838;DHT22;65797;47.352;8.164;2022-12-08T00:13:30;-0.20;1.00
76838;DHT22;65797;47.352;8.164;2022-12-08T00:15:59;-0.20;1.00
76838;DHT22;65797;47.352;8.164;2022-12-08T00:18:25;-0.20;1.00
76838;DHT22;65797;47.352;8.164;2022-12-08T00:20:55;-0.20;1.00
76838;DHT22;65797;47.352;8.164;2022-12-08T00:23:21;-0.20;1.00
76838;DHT22;65797;47.352;8.164;2022-12-08T00:25:47;-0.20;1.00
76838;DHT22;65797;47.352;8.164;2022-12-08T00:28:12;-0.10;1.00
76838;DHT22;65797;47.352;8.164;2022-12-08T00:30:41;-0.10;1.00
76838;DHT22;65797;47.352;8.164;2022-12-08T00:33:08;-0.10;1.00
76838;DHT22;65797;47.352;8.164;2022-12-08T00:35:34;-0.10;1.00
76838;DHT22;65797;47.352;8.164;2022-12-08T00:37:59;-0.10;1.00
76838;DHT22;65797;47.352;8.164;2022-12-08T00:40:25;-0.10;1.00
76838;DHT22;65797;47.352;8.164;2022-12-08T00:42:51;-0.10;1.00
76838;DHT22;65797;47.352;8.164;2022-12-08T00:45:17;-0.10;1.00
76838;DHT22;65797;47.352;8.164;2022-12-08T00:47:43;-0.10;1.00
76838;DHT22;65797;47.352;8.164;2022-12-08T00:50:09;-0.10;1.00
76838;DHT22;65797;47.352;8.164;2022-12-08T00:52:35;-0.10;1.00
76838;DHT22;65797;47.352;8.164;2022-12-08T00:55:01;-0.10;1.00
76838;DHT22;65797;47.352;8.164;2022-12-08T00:57:27;0.00;1.00
76838;DHT22;65797;47.352;8.164;2022-12-08T00:59:53;0.00;1.00
76838;DHT22;65797;47.352;8.164;2022-12-08T01:02:18;0.00;1.00
76838;DHT22;65797;47.352;8.164;2022-12-08T01:04:44;-0.10;1.00
76838;DHT22;65797;47.352;8.164;2022-12-08T01:07:10;0.00;1.00
76838;DHT22;65797;47.352;8.164;2022-12-08T01:09:36;0.00;1.00
76838;DHT22;65797;47.352;8.164;2022-12-08T01:12:02;0.00;1.00
76838;DHT22;65797;47.352;8.164;2022-12-08T01:14:27;-0.10;1.00
76838;DHT22;65797;47.352;8.164;2022-12-08T01:16:53;0.00;1.00
76838;DHT22;65797;47.352;8.164;2022-12-08T01:19:19;0.00;1.00
76838;DHT22;65797;47.352;8.164;2022-12-08T01:21:45;0.00;1.00
76838;DHT22;65797;47.352;8.164;2022-12-08T01:24:13;0.10;1.00
76838;DHT22;65797;47.352;8.164;2022-12-08T01:26:39;0.10;1.00
76838;DHT22;65797;47.352;8.164;2022-12-08T01:29:05;0.10;1.00
76838;DHT22;65797;47.352;8.164;2022-12-08T01:31:31;0.10;1.00
76838;DHT22;65797;47.352;8.164;2022-12-08T01:33:57;0.10;1.00
76838;DHT22;65797;47.352;8.164;2022-12-08T01:36:27;0.10;1.00
76838;DHT22;65797;47.352;8.164;2022-12-08T01:38:56;0.10;1.00
76838;DHT22;65797;47.352;8.164;2022-12-08T01:41:25;0.10;1.00
76838;DHT22;65797;47.352;8.164;2022-12-08T01:43:57;0.10;1.00
76838;DHT22;65797;47.352;8.164;2022-12-08T01:46:23;0.10;1.00
76838;DHT22;65797;47.352;8.164;2022-12-08T01:49:05;0.10;1.00
76838;DHT22;65797;47.352;8.164;2022-12-08T01:51:34;0.00;1.00
76838;DHT22;65797;47.352;8.164;2022-12-08T01:54:02;0.00;1.00
76838;DHT22;65797;47.352;8.164;2022-12-08T01:56:57;0.10;1.00
76838;DHT22;65797;47.352;8.164;2022-12-08T01:59:21;0.10;1.00
76838;DHT22;65797;47.352;8.164;2022-12-08T02:01:47;0.10;1.00
76838;DHT22;65797;47.352;8.164;2022-12-08T02:04:13;0.10;1.00
76838;DHT22;65797;47.352;8.164;2022-12-08T02:06:41;0.00;1.00
76838;DHT22;65797;47.352;8.164;2022-12-08T02:09:07;0.00;1.00
76838;DHT22;65797;47.352;8.164;2022-12-08T02:11:33;0.00;1.00
76838;DHT22;65797;47.352;8.164;2022-12-08T02:13:59;0.00;1.00
76838;DHT22;65797;47.352;8.164;2022-12-08T02:22:09;0.10;1.00
76838;DHT22;65797;47.352;8.164;2022-12-08T02:30:25;0.10;1.00
76838;DHT22;65797;47.352;8.164;2022-12-08T02:41:17;0.20;1.00
76838;DHT22;65797;47.352;8.164;2022-12-08T02:46:27;0.10;1.00
76838;DHT22;65797;47.352;8.164;2022-12-08T02:48:54;0.10;1.00
76838;DHT22;65797;47.352;8.164;2022-12-08T02:51:24;0.10;1.00
76838;DHT22;65797;47.352;8.164;2022-12-08T02:53:50;0.10;1.00
76838;DHT22;65797;47.352;8.164;2022-12-08T02:59:38;0.20;1.00
76838;DHT22;65797;47.352;8.164;2022-12-08T03:05:38;0.10;1.00
76838;DHT22;65797;47.352;8.164;2022-12-08T03:13:46;0.20;1.00
76838;DHT22;65797;47.352;8.164;2022-12-08T03:16:16;0.20;1.00
76838;DHT22;65797;47.352;8.164;2022-12-08T03:18:47;0.20;1.00
76838;DHT22;65797;47.352;8.164;2022-12-08T03:21:15;0.20;1.00
76838;DHT22;65797;47.352;8.164;2022-12-08T03:23:44;0.20;1.00
76838;DHT22;65797;47.352;8.164;2022-12-08T03:26:15;0.20;1.00
76838;DHT22;65797;47.352;8.164;2022-12-08T03:28:42;0.20;1.00
76838;DHT22;65797;47.352;8.164;2022-12-08T03:31:11;0.20;1.00
76838;DHT22;65797;47.352;8.164;2022-12-08T03:33:40;0.20;1.00
76838;DHT22;65797;47.352;8.164;2022-12-08T03:36:08;0.30;1.00
76838;DHT22;65797;47.352;8.164;2022-12-08T03:38:43;0.30;1.00
76838;DHT22;65797;47.352;8.164;2022-12-08T03:41:10;0.30;1.00
76838;DHT22;65797;47.352;8.164;2022-12-08T03:43:54;0.30;1.00
76838;DHT22;65797;47.352;8.164;2022-12-08T03:46:23;0.30;1.00
76838;DHT22;65797;47.352;8.164;2022-12-08T03:48:49;0.30;1.00
76838;DHT22;65797;47.352;8.164;2022-12-08T03:51:15;0.30;1.00
76838;DHT22;65797;47.352;8.164;2022-12-08T03:53:41;0.30;1.00
76838;DHT22;65797;47.352;8.164;2022-12-08T03:56:39;0.30;1.00
76838;DHT22;65797;47.352;8.164;2022-12-08T03:59:06;0.30;1.00
76838;DHT22;65797;47.352;8.164;2022-12-08T04:01:31;0.30;1.00
76838;DHT22;65797;47.352;8.164;2022-12-08T04:03:57;0.30;1.00
76838;DHT22;65797;47.352;8.164;2022-12-08T04:06:23;0.30;1.00
76838;DHT22;65797;47.352;8.164;2022-12-08T04:08:49;0.30;1.00
76838;DHT22;65797;47.352;8.164;2022-12-08T04:11:16;0.30;1.00
76838;DHT22;65797;47.352;8.164;2022-12-08T04:13:42;0.30;1.00
76838;DHT22;65797;47.352;8.164;2022-12-08T04:16:20;0.30;1.00
76838;DHT22;65797;47.352;8.164;2022-12-08T04:18:46;0.30;1.00
76838;DHT22;65797;47.352;8.164;2022-12-08T04:21:12;0.20;1.00
76838;DHT22;65797;47.352;8.164;2022-12-08T04:23:38;0.20;1.00
76838;DHT22;65797;47.352;8.164;2022-12-08T04:26:04;0.20;1.00
76838;DHT22;65797;47.352;8.164;2022-12-08T04:28:30;0.20;1.00
76838;DHT22;65797;47.352;8.164;2022-12-08T04:30:56;0.20;1.00
76838;DHT22;65797;47.352;8.164;2022-12-08T04:33:22;0.20;1.00
76838;DHT22;65797;47.352;8.164;2022-12-08T04:35:47;0.10;1.00
76838;DHT22;65797;47.352;8.164;2022-12-08T04:38:13;0.10;1.00
76838;DHT22;65797;47.352;8.164;2022-12-08T04:40:39;0.10;1.00
76838;DHT22;65797;47.352;8.164;2022-12-08T04:43:05;0.00;1.00
76838;DHT22;65797;47.352;8.164;2022-12-08T04:45:31;0.00;1.00
76838;DHT22;65797;47.352;8.164;2022-12-08T04:47:59;0.00;1.00
76838;DHT22;65797;47.352;8.164;2022-12-08T04:50:25;0.00;1.00
76838;DHT22;65797;47.352;8.164;2022-12-08T04:52:51;0.00;1.00
76838;DHT22;65797;47.352;8.164;2022-12-08T04:55:17;-0.10;1.00
76838;DHT22;65797;47.352;8.164;2022-12-08T04:57:42;-0.10;1.00
76838;DHT22;65797;47.352;8.164;2022-12-08T05:00:09;-0.10;1.00
76838;DHT22;65797;47.352;8.164;2022-12-08T05:02:35;-0.20;1.00
76838;DHT22;65797;47.352;8.164;2022-12-08T05:05:01;-0.20;1.00
76838;DHT22;65797;47.352;8.164;2022-12-08T05:07:27;-0.20;1.00
76838;DHT22;65797;47.352;8.164;2022-12-08T05:09:52;-0.20;1.00
76838;DHT22;65797;47.352;8.164;2022-12-08T05:12:18;-0.20;1.00
76838;DHT22;65797;47.352;8.164;2022-12-08T05:14:45;-0.20;1.00
76838;DHT22;65797;47.352;8.164;2022-12-08T05:17:10;-0.20;1.00
76838;DHT22;65797;47.352;8.164;2022-12-08T05:19:36;-0.20;1.00
76838;DHT22;65797;47.352;8.164;2022-12-08T05:22:02;-0.20;1.00
76838;DHT22;65797;47.352;8.164;2022-12-08T05:24:28;-0.30;1.00
76838;DHT22;65797;47.352;8.164;2022-12-08T05:26:53;-0.30;1.00
76838;DHT22;65797;47.352;8.164;2022-12-08T05:29:19;-0.30;1.00
76838;DHT22;65797;47.352;8.164;2022-12-08T05:31:44;-0.30;1.00
76838;DHT22;65797;47.352;8.164;2022-12-08T05:34:10;-0.30;1.00
76838;DHT22;65797;47.352;8.164;2022-12-08T05:36:36;-0.30;1.00
76838;DHT22;65797;47.352;8.164;2022-12-08T05:39:02;-0.20;1.00
76838;DHT22;65797;47.352;8.164;2022-12-08T05:41:27;-0.20;1.00
76838;DHT22;65797;47.352;8.164;2022-12-08T05:43:53;-0.20;1.00
76838;DHT22;65797;47.352;8.164;2022-12-08T05:46:19;-0.20;1.00
76838;DHT22;65797;47.352;8.164;2022-12-08T05:48:45;-0.20;1.00
76838;DHT22;65797;47.352;8.164;2022-12-08T05:51:22;-0.20;1.00
76838;DHT22;65797;47.352;8.164;2022-12-08T05:53:48;-0.20;1.00
76838;DHT22;65797;47.352;8.164;2022-12-08T05:56:14;-0.20;1.00
76838;DHT22;65797;47.352;8.164;2022-12-08T05:58:40;-0.20;1.00
76838;DHT22;65797;47.352;8.164;2022-12-08T06:01:06;-0.20;1.00
76838;DHT22;65797;47.352;8.164;2022-12-08T06:03:32;-0.20;1.00
76838;DHT22;65797;47.352;8.164;2022-12-08T06:05:58;-0.20;1.00
76838;DHT22;65797;47.352;8.164;2022-12-08T06:08:23;-0.20;1.00
76838;DHT22;65797;47.352;8.164;2022-12-08T06:10:49;-0.20;1.00
76838;DHT22;65797;47.352;8.164;2022-12-08T06:13:15;-0.20;1.00
76838;DHT22;65797;47.352;8.164;2022-12-08T06:15:41;-0.20;1.00
76838;DHT22;65797;47.352;8.164;2022-12-08T06:18:08;-0.20;1.00
76838;DHT22;65797;47.352;8.164;2022-12-08T06:20:34;-0.20;1.00
76838;DHT22;65797;47.352;8.164;2022-12-08T06:23:00;-0.20;1.00
76838;DHT22;65797;47.352;8.164;2022-12-08T06:25:26;-0.20;1.00
76838;DHT22;65797;47.352;8.164;2022-12-08T06:27:52;-0.20;1.00
76838;DHT22;65797;47.352;8.164;2022-12-08T06:30:17;-0.20;1.00
76838;DHT22;65797;47.352;8.164;2022-12-08T06:32:43;-0.20;1.00
76838;DHT22;65797;47.352;8.164;2022-12-08T06:35:09;-0.20;1.00
76838;DHT22;65797;47.352;8.164;2022-12-08T06:37:35;-0.10;1.00
76838;DHT22;65797;47.352;8.164;2022-12-08T06:40:00;-0.10;1.00
76838;DHT22;65797;47.352;8.164;2022-12-08T06:42:26;-0.20;1.00
76838;DHT22;65797;47.352;8.164;2022-12-08T06:45:15;-0.10;1.00
76838;DHT22;65797;47.352;8.164;2022-12-08T06:47:41;-0.20;1.00
76838;DHT22;65797;47.352;8.164;2022-12-08T06:50:08;-0.10;1.00
76838;DHT22;65797;47.352;8.164;2022-12-08T06:52:34;-0.10;1.00
76838;DHT22;65797;47.352;8.164;2022-12-08T06:55:00;-0.10;1.00
76838;DHT22;65797;47.352;8.164;2022-12-08T06:57:26;-0.10;1.00
76838;DHT22;65797;47.352;8.164;2022-12-08T06:59:51;-0.10;1.00
76838;DHT22;65797;47.352;8.164;2022-12-08T07:02:17;-0.10;1.00
76838;DHT22;65797;47.352;8.164;2022-12-08T07:04:43;-0.10;1.00
76838;DHT22;65797;47.352;8.164;2022-12-08T07:07:08;-0.10;1.00
76838;DHT22;65797;47.352;8.164;2022-12-08T07:09:34;-0.10;1.00
76838;DHT22;65797;47.352;8.164;2022-12-08T07:12:02;-0.10;1.00
76838;DHT22;65797;47.352;8.164;2022-12-08T07:14:28;-0.10;1.00
76838;DHT22;65797;47.352;8.164;2022-12-08T07:16:53;0.00;1.00
76838;DHT22;65797;47.352;8.164;2022-12-08T07:19:19;-0.10;1.00
76838;DHT22;65797;47.352;8.164;2022-12-08T07:21:45;0.00;1.00
76838;DHT22;65797;47.352;8.164;2022-12-08T07:24:11;0.00;1.00
76838;DHT22;65797;47.352;8.164;2022-12-08T07:26:37;0.00;1.00
76838;DHT22;65797;47.352;8.164;2022-12-08T07:29:02;0.00;1.00
76838;DHT22;65797;47.352;8.164;2022-12-08T07:31:28;0.10;1.00
76838;DHT22;65797;47.352;8.164;2022-12-08T07:33:55;0.10;1.00
76838;DHT22;65797;47.352;8.164;2022-12-08T07:36:22;0.10;1.00
76838;DHT22;65797;47.352;8.164;2022-12-08T07:38:48;0.10;1.00
76838;DHT22;65797;47.352;8.164;2022-12-08T07:41:16;0.10;1.00
76838;DHT22;65797;47.352;8.164;2022-12-08T07:43:42;0.10;1.00
76838;DHT22;65797;47.352;8.164;2022-12-08T07:46:11;0.10;1.00
76838;DHT22;65797;47.352;8.164;2022-12-08T07:48:37;0.10;1.00
76838;DHT22;65797;47.352;8.164;2022-12-08T07:51:04;0.10;1.00
76838;DHT22;65797;47.352;8.164;2022-12-08T07:53:30;0.20;1.00
76838;DHT22;65797;47.352;8.164;2022-12-08T07:55:56;0.20;1.00
76838;DHT22;65797;47.352;8.164;2022-12-08T07:58:22;0.30;1.00
76838;DHT22;65797;47.352;8.164;2022-12-08T08:00:48;0.30;1.00
76838;DHT22;65797;47.352;8.164;2022-12-08T08:03:14;0.30;1.00
76838;DHT22;65797;47.352;8.164;2022-12-08T08:05:40;0.30;1.00
76838;DHT22;65797;47.352;8.164;2022-12-08T08:08:05;0.30;1.00
76838;DHT22;65797;47.352;8.164;2022-12-08T08:10:31;0.40;1.00
76838;DHT22;65797;47.352;8.164;2022-12-08T08:12:58;0.40;1.00
76838;DHT22;65797;47.352;8.164;2022-12-08T08:15:24;0.40;1.00
76838;DHT22;65797;47.352;8.164;2022-12-08T08:17:51;0.50;1.00
76838;DHT22;65797;47.352;8.164;2022-12-08T08:20:18;0.50;1.00
76838;DHT22;65797;47.352;8.164;2022-12-08T08:22:48;0.50;1.00
76838;DHT22;65797;47.352;8.164;2022-12-08T08:25:15;0.50;1.00
76838;DHT22;65797;47.352;8.164;2022-12-08T08:27:41;0.60;1.00
76838;DHT22;65797;47.352;8.164;2022-12-08T08:30:09;0.60;1.00
76838;DHT22;65797;47.352;8.164;2022-12-08T08:32:36;0.60;1.00
76838;DHT22;65797;47.352;8.164;2022-12-08T08:35:03;0.70;1.00
76838;DHT22;65797;47.352;8.164;2022-12-08T08:37:29;0.70;1.00
76838;DHT22;65797;47.352;8.164;2022-12-08T08:39:54;0.80;1.00
76838;DHT22;65797;47.352;8.164;2022-12-08T08:42:21;0.80;1.00
76838;DHT22;65797;47.352;8.164;2022-12-08T08:44:47;0.90;1.00
76838;DHT22;65797;47.352;8.164;2022-12-08T08:47:13;0.90;1.00
76838;DHT22;65797;47.352;8.164;2022-12-08T08:49:38;0.90;1.00
76838;DHT22;65797;47.352;8.164;2022-12-08T08:52:04;0.90;1.00
76838;DHT22;65797;47.352;8.164;2022-12-08T08:54:30;1.00;1.00
76838;DHT22;65797;47.352;8.164;2022-12-08T08:56:57;1.10;1.00
76838;DHT22;65797;47.352;8.164;2022-12-08T08:59:23;1.10;1.00
76838;DHT22;65797;47.352;8.164;2022-12-08T09:01:49;1.20;1.00
76838;DHT22;65797;47.352;8.164;2022-12-08T09:04:15;1.20;1.00
76838;DHT22;65797;47.352;8.164;2022-12-08T09:06:41;1.30;1.00
76838;DHT22;65797;47.352;8.164;2022-12-08T09:09:08;1.40;1.00
76838;DHT22;65797;47.352;8.164;2022-12-08T09:11:34;1.40;1.00
76838;DHT22;65797;47.352;8.164;2022-12-08T09:14:00;1.50;99.90
76838;DHT22;65797;47.352;8.164;2022-12-08T09:16:25;1.50;99.90
76838;DHT22;65797;47.352;8.164;2022-12-08T09:18:51;1.70;99.90
76838;DHT22;65797;47.352;8.164;2022-12-08T09:21:22;1.70;99.90
76838;DHT22;65797;47.352;8.164;2022-12-08T09:23:51;2.00;99.90
76838;DHT22;65797;47.352;8.164;2022-12-08T09:26:17;2.40;99.90
76838;DHT22;65797;47.352;8.164;2022-12-08T09:28:47;2.50;31.00
76838;DHT22;65797;47.352;8.164;2022-12-08T09:31:15;2.90;99.90
76838;DHT22;65797;47.352;8.164;2022-12-08T09:33:41;2.90;99.90
76838;DHT22;65797;47.352;8.164;2022-12-08T09:36:07;3.10;99.90
76838;DHT22;65797;47.352;8.164;2022-12-08T09:38:32;3.00;99.90
76838;DHT22;65797;47.352;8.164;2022-12-08T09:40:59;3.00;99.90
76838;DHT22;65797;47.352;8.164;2022-12-08T09:46:43;2.90;99.90
76838;DHT22;65797;47.352;8.164;2022-12-08T09:49:15;2.90;99.90
76838;DHT22;65797;47.352;8.164;2022-12-08T09:51:43;3.00;99.90
76838;DHT22;65797;47.352;8.164;2022-12-08T09:54:31;3.10;99.90
76838;DHT22;65797;47.352;8.164;2022-12-08T09:57:02;3.00;99.90
76838;DHT22;65797;47.352;8.164;2022-12-08T09:59:34;2.90;1.00
76838;DHT22;65797;47.352;8.164;2022-12-08T10:02:00;2.90;1.00
76838;DHT22;65797;47.352;8.164;2022-12-08T10:04:37;3.00;99.90
76838;DHT22;65797;47.352;8.164;2022-12-08T10:07:15;3.00;99.90
76838;DHT22;65797;47.352;8.164;2022-12-08T10:09:54;3.00;99.90
76838;DHT22;65797;47.352;8.164;2022-12-08T10:12:33;3.10;99.90
76838;DHT22;65797;47.352;8.164;2022-12-08T10:17:48;3.10;1.00
76838;DHT22;65797;47.352;8.164;2022-12-08T10:20:20;3.20;80.50
76838;DHT22;65797;47.352;8.164;2022-12-08T10:22:51;3.30;1.00
76838;DHT22;65797;47.352;8.164;2022-12-08T10:25:19;3.40;1.00
76838;DHT22;65797;47.352;8.164;2022-12-08T10:27:52;3.50;1.00
76838;DHT22;65797;47.352;8.164;2022-12-08T10:30:20;3.50;1.00
76838;DHT22;65797;47.352;8.164;2022-12-08T10:32:48;3.60;1.00
76838;DHT22;65797;47.352;8.164;2022-12-08T10:35:16;3.50;1.00
76838;DHT22;65797;47.352;8.164;2022-12-08T10:37:59;3.50;1.00
76838;DHT22;65797;47.352;8.164;2022-12-08T10:40:34;3.50;1.00
76838;DHT22;65797;47.352;8.164;2022-12-08T10:43:02;3.40;1.00
76838;DHT22;65797;47.352;8.164;2022-12-08T10:45:32;3.40;1.00
76838;DHT22;65797;47.352;8.164;2022-12-08T10:48:16;3.60;99.90
76838;DHT22;65797;47.352;8.164;2022-12-08T10:50:52;3.70;1.00
76838;DHT22;65797;47.352;8.164;2022-12-08T10:53:44;3.70;1.00
76838;DHT22;65797;47.352;8.164;2022-12-08T10:56:14;3.50;99.90
76838;DHT22;65797;47.352;8.164;2022-12-08T10:58:42;3.50;1.00
76838;DHT22;65797;47.352;8.164;2022-12-08T11:11:21;3.60;1.00
76838;DHT22;65797;47.352;8.164;2022-12-08T11:13:49;3.60;1.00
76838;DHT22;65797;47.352;8.164;2022-12-08T11:16:17;3.60;1.00
76838;DHT22;65797;47.352;8.164;2022-12-08T11:18:45;3.70;99.90
76838;DHT22;65797;47.352;8.164;2022-12-08T11:21:18;3.90;1.00
76838;DHT22;65797;47.352;8.164;2022-12-08T11:23:48;4.00;1.00
76838;DHT22;65797;47.352;8.164;2022-12-08T11:49:37;5.00;99.90
76838;DHT22;65797;47.352;8.164;2022-12-08T11:59:51;4.60;99.90
76838;DHT22;65797;47.352;8.164;2022-12-08T12:02:28;4.50;99.90
76838;DHT22;65797;47.352;8.164;2022-12-08T12:05:04;4.40;99.90
76838;DHT22;65797;47.352;8.164;2022-12-08T12:18:49;4.30;99.90
76838;DHT22;65797;47.352;8.164;2022-12-08T12:24:02;4.40;1.00
76838;DHT22;65797;47.352;8.164;2022-12-08T12:26:31;4.30;99.90
76838;DHT22;65797;47.352;8.164;2022-12-08T12:29:00;4.40;99.90
76838;DHT22;65797;47.352;8.164;2022-12-08T12:31:36;4.30;59.20
76838;DHT22;65797;47.352;8.164;2022-12-08T12:34:06;4.40;99.90
76838;DHT22;65797;47.352;8.164;2022-12-08T12:36:48;4.40;20.30
76838;DHT22;65797;47.352;8.164;2022-12-08T12:39:18;4.40;1.00
76838;DHT22;65797;47.352;8.164;2022-12-08T12:41:49;4.40;1.00
76838;DHT22;65797;47.352;8.164;2022-12-08T12:47:00;4.30;1.00
76838;DHT22;65797;47.352;8.164;2022-12-08T15:43:10;2.80;1.00
76838;DHT22;65797;47.352;8.164;2022-12-08T15:45:36;2.70;1.00
76838;DHT22;65797;47.352;8.164;2022-12-08T15:48:02;2.70;67.50
76838;DHT22;65797;47.352;8.164;2022-12-08T15:50:27;2.60;15.00
76838;DHT22;65797;47.352;8.164;2022-12-08T15:52:53;2.60;49.80
76838;DHT22;65797;47.352;8.164;2022-12-08T15:55:20;2.50;1.00
76838;DHT22;65797;47.352;8.164;2022-12-08T15:57:48;2.50;1.00
76838;DHT22;65797;47.352;8.164;2022-12-08T16:02:41;2.40;30.20
76838;DHT22;65797;47.352;8.164;2022-12-08T16:05:07;2.30;47.20
76838;DHT22;65797;47.352;8.164;2022-12-08T16:07:32;2.20;85.60
76838;DHT22;65797;47.352;8.164;2022-12-08T16:10:03;2.20;99.90
76838;DHT22;65797;47.352;8.164;2022-12-08T16:12:29;2.20;99.90
76838;DHT22;65797;47.352;8.164;2022-12-08T16:15:13;2.20;99.90
76838;DHT22;65797;47.352;8.164;2022-12-08T16:17:40;2.20;99.90
76838;DHT22;65797;47.352;8.164;2022-12-08T16:20:11;2.10;99.90
76838;DHT22;65797;47.352;8.164;2022-12-08T16:22:37;2.10;99.90
76838;DHT22;65797;47.352;8.164;2022-12-08T16:25:03;1.90;99.90
76838;DHT22;65797;47.352;8.164;2022-12-08T16:27:32;1.90;99.90
76838;DHT22;65797;47.352;8.164;2022-12-08T16:29:59;1.80;1.00
76838;DHT22;65797;47.352;8.164;2022-12-08T16:32:25;1.80;97.30
76838;DHT22;65797;47.352;8.164;2022-12-08T16:34:51;1.80;99.90
76838;DHT22;65797;47.352;8.164;2022-12-08T16:37:19;1.70;12.60
76838;DHT22;65797;47.352;8.164;2022-12-08T16:39:46;1.60;77.90
76838;DHT22;65797;47.352;8.164;2022-12-08T16:42:13;1.50;99.90
76838;DHT22;65797;47.352;8.164;2022-12-08T16:44:58;1.50;99.90
76838;DHT22;65797;47.352;8.164;2022-12-08T16:47:24;1.50;99.90
76838;DHT22;65797;47.352;8.164;2022-12-08T16:49:49;1.40;99.90
76838;DHT22;65797;47.352;8.164;2022-12-08T16:52:16;1.20;1.00
76838;DHT22;65797;47.352;8.164;2022-12-08T16:54:42;1.20;1.00
76838;DHT22;65797;47.352;8.164;2022-12-08T16:57:07;1.10;1.00
76838;DHT22;65797;47.352;8.164;2022-12-08T16:59:33;1.10;1.00
76838;DHT22;65797;47.352;8.164;2022-12-08T17:01:59;1.10;1.00
76838;DHT22;65797;47.352;8.164;2022-12-08T17:04:24;0.90;1.00
76838;DHT22;65797;47.352;8.164;2022-12-08T17:06:50;0.90;99.90
76838;DHT22;65797;47.352;8.164;2022-12-08T17:09:17;0.80;1.00
76838;DHT22;65797;47.352;8.164;2022-12-08T17:11:43;0.70;1.00
76838;DHT22;65797;47.352;8.164;2022-12-08T17:14:10;0.70;1.00
76838;DHT22;65797;47.352;8.164;2022-12-08T17:16:36;0.80;1.00
76838;DHT22;65797;47.352;8.164;2022-12-08T17:19:01;0.70;1.00
76838;DHT22;65797;47.352;8.164;2022-12-08T17:21:27;0.70;1.00
76838;DHT22;65797;47.352;8.164;2022-12-08T17:23:53;0.70;99.90
76838;DHT22;65797;47.352;8.164;2022-12-08T17:26:19;0.60;1.00
76838;DHT22;65797;47.352;8.164;2022-12-08T17:28:45;0.50;1.00
76838;DHT22;65797;47.352;8.164;2022-12-08T17:31:12;0.50;1.00
76838;DHT22;65797;47.352;8.164;2022-12-08T17:33:38;0.40;1.00
76838;DHT22;65797;47.352;8.164;2022-12-08T17:36:16;0.40;47.80
76838;DHT22;65797;47.352;8.164;2022-12-08T17:38:42;0.40;32.10
76838;DHT22;65797;47.352;8.164;2022-12-08T17:41:09;0.50;94.00
76838;DHT22;65797;47.352;8.164;2022-12-08T17:43:36;0.40;1.00
76838;DHT22;65797;47.352;8.164;2022-12-08T17:46:02;0.30;6.10
76838;DHT22;65797;47.352;8.164;2022-12-08T17:48:28;0.40;1.00
76838;DHT22;65797;47.352;8.164;2022-12-08T17:50:54;0.40;1.00
76838;DHT22;65797;47.352;8.164;2022-12-08T17:53:20;0.40;1.00
76838;DHT22;65797;47.352;8.164;2022-12-08T17:55:53;0.30;1.00
76838;DHT22;65797;47.352;8.164;2022-12-08T17:58:20;0.30;1.00
76838;DHT22;65797;47.352;8.164;2022-12-08T18:00:46;0.30;1.00
76838;DHT22;65797;47.352;8.164;2022-12-08T18:03:12;0.30;1.00
76838;DHT22;65797;47.352;8.164;2022-12-08T18:05:38;0.30;1.00
76838;DHT22;65797;47.352;8.164;2022-12-08T18:08:03;0.30;1.00
76838;DHT22;65797;47.352;8.164;2022-12-08T18:10:29;0.30;1.00
76838;DHT22;65797;47.352;8.164;2022-12-08T18:12:55;0.30;1.00
76838;DHT22;65797;47.352;8.164;2022-12-08T18:15:23;0.30;1.00
76838;DHT22;65797;47.352;8.164;2022-12-08T18:17:49;0.30;1.00
76838;DHT22;65797;47.352;8.164;2022-12-08T18:20:15;0.30;1.00
76838;DHT22;65797;47.352;8.164;2022-12-08T18:22:41;0.30;1.00
76838;DHT22;65797;47.352;8.164;2022-12-08T18:25:08;0.30;1.00
76838;DHT22;65797;47.352;8.164;2022-12-08T18:27:34;0.30;1.00
76838;DHT22;65797;47.352;8.164;2022-12-08T18:30:01;0.20;1.00
76838;DHT22;65797;47.352;8.164;2022-12-08T18:32:27;0.20;99.90
76838;DHT22;65797;47.352;8.164;2022-12-08T18:34:53;0.20;78.40
76838;DHT22;65797;47.352;8.164;2022-12-08T18:37:18;0.20;1.00
76838;DHT22;65797;47.352;8.164;2022-12-08T18:39:44;0.20;99.90
76838;DHT22;65797;47.352;8.164;2022-12-08T18:42:10;0.20;59.40
76838;DHT22;65797;47.352;8.164;2022-12-08T18:44:58;0.20;91.20
76838;DHT22;65797;47.352;8.164;2022-12-08T18:47:27;0.20;58.20
76838;DHT22;65797;47.352;8.164;2022-12-08T18:49:53;0.20;99.90
76838;DHT22;65797;47.352;8.164;2022-12-08T18:52:19;0.20;99.90
76838;DHT22;65797;47.352;8.164;2022-12-08T18:54:45;0.20;99.90
76838;DHT22;65797;47.352;8.164;2022-12-08T18:57:11;0.20;99.90
76838;DHT22;65797;47.352;8.164;2022-12-08T18:59:36;0.30;99.90
76838;DHT22;65797;47.352;8.164;2022-12-08T19:02:02;0.20;99.90
76838;DHT22;65797;47.352;8.164;2022-12-08T19:04:28;0.10;1.00
76838;DHT22;65797;47.352;8.164;2022-12-08T19:06:55;0.10;68.00
76838;DHT22;65797;47.352;8.164;2022-12-08T19:09:21;0.10;99.90
76838;DHT22;65797;47.352;8.164;2022-12-08T19:11:47;0.20;99.90
76838;DHT22;65797;47.352;8.164;2022-12-08T19:14:13;0.20;99.90
76838;DHT22;65797;47.352;8.164;2022-12-08T19:16:39;0.20;99.90
76838;DHT22;65797;47.352;8.164;2022-12-08T19:19:05;0.20;99.90
76838;DHT22;65797;47.352;8.164;2022-12-08T19:21:31;0.20;99.90
76838;DHT22;65797;47.352;8.164;2022-12-08T19:23:56;0.10;99.90
76838;DHT22;65797;47.352;8.164;2022-12-08T19:26:24;0.10;99.90
76838;DHT22;65797;47.352;8.164;2022-12-08T19:28:50;0.10;99.90
76838;DHT22;65797;47.352;8.164;2022-12-08T19:31:15;0.10;99.90
76838;DHT22;65797;47.352;8.164;2022-12-08T19:33:41;0.10;99.90
76838;DHT22;65797;47.352;8.164;2022-12-08T19:36:10;0.10;99.90
76838;DHT22;65797;47.352;8.164;2022-12-08T19:38:36;0.10;1.00
76838;DHT22;65797;47.352;8.164;2022-12-08T19:41:22;0.20;1.00
76838;DHT22;65797;47.352;8.164;2022-12-08T19:44:20;0.10;99.90
76838;DHT22;65797;47.352;8.164;2022-12-08T19:47:04;0.20;1.00
76838;DHT22;65797;47.352;8.164;2022-12-08T19:49:30;0.20;99.90
76838;DHT22;65797;47.352;8.164;2022-12-08T19:51:57;0.20;1.00
76838;DHT22;65797;47.352;8.164;2022-12-08T19:54:23;0.10;99.90
76838;DHT22;65797;47.352;8.164;2022-12-08T19:56:48;0.20;1.00
76838;DHT22;65797;47.352;8.164;2022-12-08T19:59:14;0.20;1.00
76838;DHT22;65797;47.352;8.164;2022-12-08T20:01:43;0.20;99.90
76838;DHT22;65797;47.352;8.164;2022-12-08T20:04:15;0.20;99.90
76838;DHT22;65797;47.352;8.164;2022-12-08T20:06:41;0.20;99.90
76838;DHT22;65797;47.352;8.164;2022-12-08T20:09:07;0.20;1.00
76838;DHT22;65797;47.352;8.164;2022-12-08T20:11:35;0.20;1.00
76838;DHT22;65797;47.352;8.164;2022-12-08T20:14:00;0.20;1.00
76838;DHT22;65797;47.352;8.164;2022-12-08T20:16:26;0.20;1.00
76838;DHT22;65797;47.352;8.164;2022-12-08T20:18:52;0.10;99.90
76838;DHT22;65797;47.352;8.164;2022-12-08T20:21:18;0.10;1.00
76838;DHT22;65797;47.352;8.164;2022-12-08T20:23:44;0.20;19.30
76838;DHT22;65797;47.352;8.164;2022-12-08T20:26:14;0.20;1.00
76838;DHT22;65797;47.352;8.164;2022-12-08T20:28:39;0.20;1.00
76838;DHT22;65797;47.352;8.164;2022-12-08T20:31:05;0.20;1.00
76838;DHT22;65797;47.352;8.164;2022-12-08T20:33:31;0.20;99.90